Time;durP1;ratioP1;P1;durP2;ratioP2;P2;SDS_P1;SDS_P2;PMS_P1;PMS_P2;Temp;Humidity;BMP_temperature;BMP_pressure;BME280_temperature;BME280_humidity;BME280_pressure;Samples;Min_cycle;Max_cycle;Signal;HPM_P1;HPM_P2
2022/08/01 00:00:42;;;;;;;4.25;2.28;;;;;;;;;;4854242;29;20068;-61
2022/08/01 00:03:09;;;;;;;8.60;2.95;;;;;;;;;;4850108;29;20112;-59
2022/08/01 00:05:35;;;;;;;5.30;2.38;;;;;;;;;;4848766;29;20147;-60
2022/08/01 00:08:02;;;;;;;9.15;4.07;;;;;;;;;;4857522;29;20052;-59
2022/08/01 00:10:29;;;;;;;5.05;2.30;;;;;;;;;;4847353;29;20056;-58
2022/08/01 00:12:55;;;;;;;9.48;4.40;;;;;;;;;;4852680;29;20061;-58
2022/08/01 00:15:22;;;;;;;5.75;2.47;;;;;;;;;;4847947;29;20157;-59
2022/08/01 00:17:50;;;;;;;4.40;2.00;;;;;;;;;;4853454;29;20125;-60
2022/08/01 00:20:17;;;;;;;8.98;4.10;;;;;;;;;;4846083;29;20053;-58
2022/08/01 00:22:43;;;;;;;7.07;3.05;;;;;;;;;;4848006;29;20056;-59
2022/08/01 00:25:10;;;;;;;6.15;2.92;;;;;;;;;;4854283;29;20057;-59
2022/08/01 00:27:37;;;;;;;5.28;2.00;;;;;;;;;;4848672;29;20057;-59
2022/08/01 00:30:04;;;;;;;4.88;2.35;;;;;;;;;;4849700;29;20064;-58
2022/08/01 00:32:31;;;;;;;5.93;2.38;;;;;;;;;;4847860;29;20117;-58
2022/08/01 00:35:00;;;;;;;5.88;2.05;;;;;;;;;;4850170;29;20092;-58
2022/08/01 00:37:27;;;;;;;8.43;2.53;;;;;;;;;;4841987;29;20079;-58
2022/08/01 00:39:54;;;;;;;6.63;2.85;;;;;;;;;;4848949;29;20141;-59
2022/08/01 00:42:20;;;;;;;3.58;1.88;;;;;;;;;;4867666;29;20041;-58
2022/08/01 00:44:48;;;;;;;3.72;1.92;;;;;;;;;;4845656;29;20057;-58
2022/08/01 00:47:15;;;;;;;4.57;2.17;;;;;;;;;;4850842;29;20060;-59
2022/08/01 00:49:41;;;;;;;4.22;2.15;;;;;;;;;;4847794;29;20058;-60
2022/08/01 00:52:10;;;;;;;8.05;2.58;;;;;;;;;;4851380;29;20049;-60
2022/08/01 00:54:37;;;;;;;7.53;2.53;;;;;;;;;;4844108;29;20076;-59
2022/08/01 00:57:03;;;;;;;5.72;2.38;;;;;;;;;;4851650;29;20050;-60
2022/08/01 00:59:30;;;;;;;3.50;1.80;;;;;;;;;;4846107;29;21316;-61
2022/08/01 01:01:57;;;;;;;6.47;2.30;;;;;;;;;;4856661;29;20064;-60
2022/08/01 01:04:24;;;;;;;3.72;1.83;;;;;;;;;;4845199;29;20148;-60
2022/08/01 01:06:55;;;;;;;3.67;1.77;;;;;;;;;;4844053;29;20057;-59
2022/08/01 01:09:30;;;;;;;6.90;2.38;;;;;;;;;;4855021;29;20065;-60
2022/08/01 01:12:02;;;;;;;8.32;2.65;;;;;;;;;;4865094;29;20077;-60
2022/08/01 01:14:34;;;;;;;5.00;2.00;;;;;;;;;;4855874;29;20064;-60
2022/08/01 01:17:01;;;;;;;6.57;3.15;;;;;;;;;;4846496;29;20068;-59
2022/08/01 01:19:31;;;;;;;6.03;2.63;;;;;;;;;;4853508;29;20067;-60
2022/08/01 01:22:06;;;;;;;4.55;2.15;;;;;;;;;;4848372;29;20077;-60
2022/08/01 01:24:38;;;;;;;8.20;3.42;;;;;;;;;;4870853;29;20117;-60
2022/08/01 01:27:09;;;;;;;5.72;2.40;;;;;;;;;;4855056;29;20085;-59
2022/08/01 01:29:40;;;;;;;11.10;3.88;;;;;;;;;;4872677;29;20068;-59
2022/08/01 01:32:10;;;;;;;11.77;4.80;;;;;;;;;;4846495;29;20092;-60
2022/08/01 01:34:38;;;;;;;9.40;3.63;;;;;;;;;;4864772;29;20064;-59
2022/08/01 01:37:06;;;;;;;5.50;2.33;;;;;;;;;;4854641;29;20060;-59
2022/08/01 01:39:33;;;;;;;8.60;3.75;;;;;;;;;;4845522;29;20061;-60
2022/08/01 01:42:00;;;;;;;8.95;3.85;;;;;;;;;;4847578;29;20049;-58
2022/08/01 01:44:28;;;;;;;11.52;3.80;;;;;;;;;;4854554;29;20060;-58
2022/08/01 01:46:57;;;;;;;9.75;3.78;;;;;;;;;;4857204;29;20054;-58
2022/08/01 01:49:25;;;;;;;7.65;3.08;;;;;;;;;;4847539;29;20061;-60
2022/08/01 01:51:52;;;;;;;7.40;3.03;;;;;;;;;;4852179;29;20128;-60
2022/08/01 01:54:19;;;;;;;6.43;2.50;;;;;;;;;;4874007;29;20053;-59
2022/08/01 01:56:52;;;;;;;6.57;3.17;;;;;;;;;;4847011;29;20084;-58
2022/08/01 01:59:20;;;;;;;5.07;2.00;;;;;;;;;;4861209;29;20346;-59
2022/08/01 02:01:47;;;;;;;7.05;2.60;;;;;;;;;;4848301;29;20057;-60
2022/08/01 02:04:16;;;;;;;5.00;2.10;;;;;;;;;;4841113;29;20057;-60
2022/08/01 02:06:44;;;;;;;7.53;3.00;;;;;;;;;;4850931;29;20129;-60
2022/08/01 02:09:11;;;;;;;4.60;2.10;;;;;;;;;;4861494;29;20057;-60
2022/08/01 02:11:42;;;;;;;3.90;2.13;;;;;;;;;;4868359;29;20069;-60
2022/08/01 02:14:09;;;;;;;7.45;3.08;;;;;;;;;;4837560;29;20057;-60
2022/08/01 02:16:36;;;;;;;5.72;2.47;;;;;;;;;;4838101;29;20061;-60
2022/08/01 02:19:04;;;;;;;7.13;2.93;;;;;;;;;;4851416;29;20065;-60
2022/08/01 02:21:34;;;;;;;6.30;2.03;;;;;;;;;;4872031;29;20058;-59
2022/08/01 02:24:04;;;;;;;5.28;2.10;;;;;;;;;;4841696;29;20068;-60
2022/08/01 02:26:32;;;;;;;9.55;4.25;;;;;;;;;;4838720;29;20072;-59
2022/08/01 02:29:00;;;;;;;4.70;2.00;;;;;;;;;;4835095;29;20148;-60
2022/08/01 02:31:26;;;;;;;;;;;;;;;;;;4838794;29;20156;-60
2022/08/01 02:33:56;;;;;;;5.03;2.00;;;;;;;;;;4844085;29;19924;-60
2022/08/01 02:36:26;;;;;;;3.78;1.90;;;;;;;;;;4838868;29;20068;-58
2022/08/01 02:38:55;;;;;;;8.38;3.30;;;;;;;;;;4840123;29;20057;-60
2022/08/01 02:41:22;;;;;;;7.30;3.13;;;;;;;;;;4834763;29;20058;-61
2022/08/01 02:43:52;;;;;;;7.72;3.10;;;;;;;;;;4838904;29;20058;-59
2022/08/01 02:46:23;;;;;;;8.48;3.40;;;;;;;;;;4840807;29;20158;-59
2022/08/01 02:48:51;;;;;;;7.07;3.10;;;;;;;;;;4871725;29;20137;-60
2022/08/01 02:51:18;;;;;;;3.67;1.83;;;;;;;;;;4848405;29;20061;-60
2022/08/01 02:53:47;;;;;;;6.00;2.42;;;;;;;;;;4855109;29;20049;-61
2022/08/01 02:56:16;;;;;;;3.22;1.60;;;;;;;;;;4869375;29;20053;-60
2022/08/01 02:58:44;;;;;;;3.72;1.67;;;;;;;;;;4831273;29;20067;-59
2022/08/01 03:01:11;;;;;;;3.78;1.52;;;;;;;;;;4838199;29;20050;-59
2022/08/01 03:03:41;;;;;;;5.60;2.10;;;;;;;;;;4838303;29;20077;-60
2022/08/01 03:06:08;;;;;;;6.40;2.17;;;;;;;;;;4838592;29;20068;-61
2022/08/01 03:08:35;;;;;;;4.22;1.75;;;;;;;;;;4844956;29;20053;-59
2022/08/01 03:11:03;;;;;;;4.20;2.10;;;;;;;;;;4838528;29;20050;-60
2022/08/01 03:13:32;;;;;;;8.40;3.45;;;;;;;;;;4832002;29;20070;-60
2022/08/01 03:15:59;;;;;;;8.82;3.40;;;;;;;;;;4853374;29;20080;-60
2022/08/01 03:18:26;;;;;;;4.93;2.30;;;;;;;;;;4837214;29;20076;-61
2022/08/01 03:20:54;;;;;;;10.55;4.00;;;;;;;;;;4833614;29;20054;-59
2022/08/01 03:23:22;;;;;;;12.07;3.92;;;;;;;;;;4837020;29;20146;-58
2022/08/01 03:25:49;;;;;;;5.38;2.10;;;;;;;;;;4832208;29;20062;-59
2022/08/01 03:28:17;;;;;;;3.17;1.75;;;;;;;;;;4836194;29;20058;-60
2022/08/01 03:30:45;;;;;;;6.40;2.42;;;;;;;;;;4831761;29;20077;-60
2022/08/01 03:33:11;;;;;;;8.82;4.07;;;;;;;;;;4851983;29;20169;-61
2022/08/01 03:35:40;;;;;;;9.90;3.53;;;;;;;;;;4824942;29;20066;-61
2022/08/01 03:38:11;;;;;;;5.13;2.08;;;;;;;;;;4837175;29;20053;-61
2022/08/01 03:40:39;;;;;;;5.00;2.13;;;;;;;;;;4831864;29;20058;-60
2022/08/01 03:43:08;;;;;;;6.30;2.35;;;;;;;;;;4836151;29;20049;-61
2022/08/01 03:45:36;;;;;;;4.90;2.22;;;;;;;;;;4832659;29;20068;-61
2022/08/01 03:48:09;;;;;;;4.90;1.98;;;;;;;;;;4837618;29;20053;-60
2022/08/01 03:50:38;;;;;;;5.95;2.20;;;;;;;;;;4832286;29;20068;-61
2022/08/01 03:53:04;;;;;;;;;;;;;;;;;;4838200;29;20113;-61
2022/08/01 03:55:32;;;;;;;3.70;1.80;;;;;;;;;;4832582;29;19938;-61
2022/08/01 03:58:01;;;;;;;4.45;1.80;;;;;;;;;;4835937;29;20065;-60
2022/08/01 04:00:28;;;;;;;5.32;2.50;;;;;;;;;;4831270;29;20136;-60
2022/08/01 04:02:58;;;;;;;;;;;;;;;;;;4840129;29;20046;-61
2022/08/01 04:05:29;;;;;;;7.47;2.15;;;;;;;;;;4875768;29;20023;-61
2022/08/01 04:07:57;;;;;;;9.50;3.53;;;;;;;;;;4857740;29;20088;-60
2022/08/01 04:10:24;;;;;;;4.90;1.90;;;;;;;;;;4874476;29;20063;-60
2022/08/01 04:12:50;;;;;;;4.55;2.10;;;;;;;;;;4886449;29;20053;-60
2022/08/01 04:15:17;;;;;;;6.65;2.65;;;;;;;;;;4892720;29;20085;-59
2022/08/01 04:17:44;;;;;;;7.15;3.00;;;;;;;;;;4871941;29;20048;-59
2022/08/01 04:20:12;;;;;;;7.25;2.90;;;;;;;;;;4858933;29;20049;-58
2022/08/01 04:22:40;;;;;;;6.80;2.17;;;;;;;;;;4853347;29;20061;-60
2022/08/01 04:25:10;;;;;;;4.18;2.08;;;;;;;;;;4859014;29;20110;-61
2022/08/01 04:27:37;;;;;;;10.77;3.75;;;;;;;;;;4853959;29;20060;-59
2022/08/01 04:30:05;;;;;;;9.68;3.53;;;;;;;;;;4858807;29;20044;-59
2022/08/01 04:32:34;;;;;;;7.05;2.17;;;;;;;;;;4854551;29;20059;-60
2022/08/01 04:35:04;;;;;;;5.82;2.58;;;;;;;;;;4858488;29;20053;-60
2022/08/01 04:37:31;;;;;;;6.15;2.67;;;;;;;;;;4860175;29;20048;-59
2022/08/01 04:39:59;;;;;;;4.45;1.67;;;;;;;;;;4875779;29;20052;-61
2022/08/01 04:42:27;;;;;;;;;;;;;;;;;;4866864;29;20101;-60
2022/08/01 04:44:54;;;;;;;4.87;1.90;;;;;;;;;;4857294;29;19928;-60
2022/08/01 04:47:21;;;;;;;7.40;2.80;;;;;;;;;;4852094;29;20305;-59
2022/08/01 04:49:47;;;;;;;6.80;2.83;;;;;;;;;;4856667;29;20049;-60
2022/08/01 04:52:14;;;;;;;9.25;3.97;;;;;;;;;;4856541;29;20064;-61
2022/08/01 04:54:40;;;;;;;15.55;7.40;;;;;;;;;;4886012;29;20155;-60
2022/08/01 04:57:08;;;;;;;10.43;3.78;;;;;;;;;;4866047;29;20057;-60
2022/08/01 04:59:40;;;;;;;5.15;2.10;;;;;;;;;;4843738;29;20057;-60
2022/08/01 05:02:07;;;;;;;6.55;3.65;;;;;;;;;;4848795;29;20147;-59
2022/08/01 05:04:34;;;;;;;3.95;1.90;;;;;;;;;;4836541;29;20061;-60
2022/08/01 05:07:00;;;;;;;6.75;2.95;;;;;;;;;;4846387;29;20045;-59
2022/08/01 05:09:27;;;;;;;5.30;2.22;;;;;;;;;;4854978;29;20045;-59
2022/08/01 05:11:54;;;;;;;7.55;2.60;;;;;;;;;;4854833;29;20169;-61
2022/08/01 05:14:22;;;;;;;5.25;2.53;;;;;;;;;;4851046;29;20065;-60
2022/08/01 05:16:49;;;;;;;7.72;2.75;;;;;;;;;;4872543;29;20061;-61
2022/08/01 05:19:16;;;;;;;6.77;2.77;;;;;;;;;;4863505;29;20079;-61
2022/08/01 05:21:43;;;;;;;6.63;2.80;;;;;;;;;;4857747;29;20061;-61
2022/08/01 05:24:09;;;;;;;4.03;2.00;;;;;;;;;;4850040;29;20061;-60
2022/08/01 05:26:37;;;;;;;3.65;1.70;;;;;;;;;;4840574;29;20061;-61
2022/08/01 05:29:03;;;;;;;4.10;2.30;;;;;;;;;;4856363;29;20061;-61
2022/08/01 05:31:33;;;;;;;6.05;2.50;;;;;;;;;;4845146;29;20069;-60
2022/08/01 05:34:00;;;;;;;4.65;2.05;;;;;;;;;;4853010;29;20064;-61
2022/08/01 05:36:27;;;;;;;11.85;5.18;;;;;;;;;;4850651;29;20093;-60
2022/08/01 05:38:55;;;;;;;8.95;3.65;;;;;;;;;;4868888;29;20207;-61
2022/08/01 05:41:22;;;;;;;6.28;2.65;;;;;;;;;;4876446;29;20056;-60
2022/08/01 05:43:48;;;;;;;4.78;1.90;;;;;;;;;;4864258;29;20064;-60
2022/08/01 05:46:15;;;;;;;4.22;1.90;;;;;;;;;;4896082;29;20057;-60
2022/08/01 05:48:43;;;;;;;4.53;2.10;;;;;;;;;;4852761;29;20064;-60
2022/08/01 05:51:10;;;;;;;4.13;1.80;;;;;;;;;;4854540;29;20053;-60
2022/08/01 05:53:37;;;;;;;5.88;1.80;;;;;;;;;;4850846;29;20061;-60
2022/08/01 05:56:04;;;;;;;3.60;1.73;;;;;;;;;;4842734;29;20057;-60
2022/08/01 05:58:31;;;;;;;6.07;1.80;;;;;;;;;;4839953;29;20053;-61
2022/08/01 06:00:58;;;;;;;3.80;1.70;;;;;;;;;;4845633;29;20053;-61
2022/08/01 06:03:24;;;;;;;3.47;1.70;;;;;;;;;;4866394;29;20118;-60
2022/08/01 06:05:56;;;;;;;2.78;1.50;;;;;;;;;;4866253;29;20052;-60
2022/08/01 06:08:23;;;;;;;3.00;1.30;;;;;;;;;;4859984;29;20056;-61
2022/08/01 06:10:50;;;;;;;3.20;1.33;;;;;;;;;;4852853;29;20056;-60
2022/08/01 06:13:16;;;;;;;3.47;1.60;;;;;;;;;;4860538;29;20131;-60
2022/08/01 06:15:45;;;;;;;2.63;1.40;;;;;;;;;;4852995;29;20057;-60
2022/08/01 06:18:11;;;;;;;;;;;;;;;;;;4856540;29;20053;-60
2022/08/01 06:20:40;;;;;;;2.28;1.13;;;;;;;;;;4856697;29;19930;-61
2022/08/01 06:23:08;;;;;;;2.78;1.20;;;;;;;;;;4870926;29;20163;-60
2022/08/01 06:25:35;;;;;;;2.05;1.02;;;;;;;;;;4878399;29;20049;-60
2022/08/01 06:28:02;;;;;;;3.08;1.25;;;;;;;;;;4887871;29;20084;-60
2022/08/01 06:30:29;;;;;;;2.75;1.30;;;;;;;;;;4877866;29;20060;-60
2022/08/01 06:32:58;;;;;;;2.50;1.00;;;;;;;;;;4860519;29;20052;-60
2022/08/01 06:35:25;;;;;;;2.33;1.13;;;;;;;;;;4892691;29;20060;-60
2022/08/01 06:37:52;;;;;;;2.22;1.05;;;;;;;;;;4862285;29;20061;-60
2022/08/01 06:40:20;;;;;;;2.22;1.00;;;;;;;;;;4860157;29;20133;-60
2022/08/01 06:42:47;;;;;;;1.00;0.80;;;;;;;;;;4854260;29;20144;-61
2022/08/01 06:45:22;;;;;;;2.53;1.02;;;;;;;;;;4860328;29;20064;-61
2022/08/01 06:47:49;;;;;;;1.65;1.00;;;;;;;;;;4862134;29;20048;-62
2022/08/01 06:50:15;;;;;;;2.03;1.17;;;;;;;;;;4872105;29;20053;-60
2022/08/01 06:52:42;;;;;;;1.00;0.90;;;;;;;;;;4873782;29;20060;-61
2022/08/01 06:55:09;;;;;;;1.85;1.10;;;;;;;;;;4877947;29;20056;-59
2022/08/01 06:57:37;;;;;;;1.10;0.90;;;;;;;;;;4870583;29;20063;-58
2022/08/01 07:00:07;;;;;;;1.00;0.75;;;;;;;;;;4859339;29;20057;-60
2022/08/01 07:02:33;;;;;;;1.15;0.80;;;;;;;;;;4869327;29;20061;-59
2022/08/01 07:05:01;;;;;;;1.08;0.77;;;;;;;;;;4874911;29;20087;-60
2022/08/01 07:07:28;;;;;;;2.13;0.93;;;;;;;;;;4859382;29;20144;-59
2022/08/01 07:09:54;;;;;;;2.45;0.95;;;;;;;;;;4854460;29;20324;-60
2022/08/01 07:12:21;;;;;;;3.25;1.05;;;;;;;;;;4875144;29;20053;-60
2022/08/01 07:14:49;;;;;;;2.30;0.90;;;;;;;;;;4883269;29;20064;-59
2022/08/01 07:17:16;;;;;;;2.63;0.95;;;;;;;;;;4874683;29;20112;-60
2022/08/01 07:19:42;;;;;;;2.13;1.10;;;;;;;;;;4887982;29;20052;-60
2022/08/01 07:22:09;;;;;;;2.42;0.82;;;;;;;;;;4877390;29;20051;-58
2022/08/01 07:24:36;;;;;;;1.92;1.05;;;;;;;;;;4871574;29;20064;-61
2022/08/01 07:27:02;;;;;;;1.90;1.00;;;;;;;;;;4876719;29;20075;-59
2022/08/01 07:29:29;;;;;;;2.05;0.98;;;;;;;;;;4871622;29;20487;-59
2022/08/01 07:31:58;;;;;;;3.22;1.20;;;;;;;;;;4892768;29;20052;-61
2022/08/01 07:34:25;;;;;;;2.42;1.02;;;;;;;;;;4878813;29;20114;-59
2022/08/01 07:36:52;;;;;;;3.67;1.23;;;;;;;;;;4875188;29;20049;-59
2022/08/01 07:39:29;;;;;;;2.65;1.08;;;;;;;;;;4851899;29;20060;-60
2022/08/01 07:41:55;;;;;;;1.98;0.95;;;;;;;;;;4863263;29;20071;-60
2022/08/01 07:44:22;;;;;;;1.48;1.00;;;;;;;;;;4870684;29;20063;-59
2022/08/01 07:46:48;;;;;;;2.38;1.02;;;;;;;;;;4858249;29;20064;-61
2022/08/01 07:49:17;;;;;;;1.38;0.80;;;;;;;;;;4870514;29;20052;-60
2022/08/01 07:51:44;;;;;;;1.63;0.98;;;;;;;;;;4855776;29;20056;-59
2022/08/01 07:54:10;;;;;;;1.42;0.90;;;;;;;;;;4873734;29;20065;-60
2022/08/01 07:56:40;;;;;;;0.95;0.77;;;;;;;;;;4868288;29;20060;-60
2022/08/01 07:59:07;;;;;;;3.75;1.20;;;;;;;;;;4877289;29;20443;-61
2022/08/01 08:01:33;;;;;;;1.55;0.90;;;;;;;;;;4887918;29;20128;-59
2022/08/01 08:04:00;;;;;;;1.88;1.00;;;;;;;;;;4890375;29;20057;-59
2022/08/01 08:06:28;;;;;;;1.48;0.82;;;;;;;;;;4869124;29;20061;-61
2022/08/01 08:08:55;;;;;;;1.25;0.95;;;;;;;;;;4873127;29;20099;-61
2022/08/01 08:11:21;;;;;;;1.85;0.93;;;;;;;;;;4858785;29;20164;-59
2022/08/01 08:13:48;;;;;;;1.55;0.70;;;;;;;;;;4855569;29;20064;-61
2022/08/01 08:16:15;;;;;;;2.80;1.30;;;;;;;;;;4857963;29;20057;-60
2022/08/01 08:18:42;;;;;;;2.17;1.10;;;;;;;;;;4874343;29;20045;-60
2022/08/01 08:21:09;;;;;;;2.47;0.95;;;;;;;;;;4863372;29;20148;-60
2022/08/01 08:26:23;;;;;;;2.25;1.13;;;;;;;;;;4851459;29;20069;-61
2022/08/01 08:28:49;;;;;;;2.80;1.02;;;;;;;;;;4855751;29;20152;-59
2022/08/01 08:31:16;;;;;;;1.38;1.02;;;;;;;;;;4850119;29;20053;-60
2022/08/01 08:33:42;;;;;;;1.55;1.00;;;;;;;;;;4869891;29;20148;-58
2022/08/01 08:36:11;;;;;;;2.33;1.20;;;;;;;;;;4844432;29;20057;-59
2022/08/01 08:38:39;;;;;;;1.95;0.77;;;;;;;;;;4854785;29;20102;-58
2022/08/01 08:41:07;;;;;;;0.93;0.70;;;;;;;;;;4854402;29;20170;-61
2022/08/01 08:43:33;;;;;;;1.20;0.80;;;;;;;;;;4865696;29;20061;-61
2022/08/01 08:46:01;;;;;;;1.98;0.90;;;;;;;;;;4874470;29;20089;-59
2022/08/01 08:48:28;;;;;;;0.93;0.70;;;;;;;;;;4868365;29;20109;-59
2022/08/01 08:50:56;;;;;;;1.95;0.98;;;;;;;;;;4862259;29;20063;-60
2022/08/01 08:53:23;;;;;;;2.37;1.00;;;;;;;;;;4848822;29;20101;-60
2022/08/01 08:55:51;;;;;;;1.20;0.88;;;;;;;;;;4852723;29;20324;-61
2022/08/01 08:58:18;;;;;;;1.48;0.80;;;;;;;;;;4859111;29;20053;-61
2022/08/01 09:00:46;;;;;;;1.38;0.80;;;;;;;;;;4872062;29;20072;-60
2022/08/01 09:03:13;;;;;;;3.50;1.13;;;;;;;;;;4861867;29;20059;-61
2022/08/01 09:05:40;;;;;;;1.60;0.80;;;;;;;;;;4857091;29;20060;-61
2022/08/01 09:08:08;;;;;;;1.85;0.70;;;;;;;;;;4857257;29;20057;-60
2022/08/01 09:10:36;;;;;;;2.10;0.82;;;;;;;;;;4890713;29;20156;-60
2022/08/01 09:13:04;;;;;;;1.70;0.90;;;;;;;;;;4866202;29;20056;-61
2022/08/01 09:15:38;;;;;;;2.65;1.25;;;;;;;;;;4857283;29;20128;-59
2022/08/01 09:18:05;;;;;;;2.05;0.85;;;;;;;;;;4855217;29;20049;-62
2022/08/01 09:20:34;;;;;;;1.67;1.00;;;;;;;;;;4889109;29;20060;-61
2022/08/01 09:23:01;;;;;;;1.63;0.90;;;;;;;;;;4870112;29;20057;-59
2022/08/01 09:25:32;;;;;;;1.40;0.98;;;;;;;;;;4855685;29;20056;-59
2022/08/01 09:28:05;;;;;;;3.67;1.02;;;;;;;;;;4839157;29;20058;-59
2022/08/01 09:30:37;;;;;;;2.03;0.90;;;;;;;;;;4872830;29;20071;-62
2022/08/01 09:33:04;;;;;;;3.72;1.08;;;;;;;;;;4875868;29;20064;-59
2022/08/01 09:35:34;;;;;;;1.85;0.98;;;;;;;;;;4884756;29;20069;-60
2022/08/01 09:38:16;;;;;;;2.55;0.80;;;;;;;;;;4873451;29;20056;-59
2022/08/01 09:40:47;;;;;;;7.82;1.52;;;;;;;;;;4868242;29;20072;-60
2022/08/01 09:43:15;;;;;;;3.53;1.15;;;;;;;;;;4875274;29;20052;-60
2022/08/01 09:45:42;;;;;;;2.72;1.15;;;;;;;;;;4852883;29;20063;-61
2022/08/01 09:48:09;;;;;;;4.50;1.30;;;;;;;;;;4856954;29;20061;-59
2022/08/01 09:50:43;;;;;;;2.03;1.30;;;;;;;;;;4856169;29;20061;-61
2022/08/01 09:53:10;;;;;;;2.95;1.08;;;;;;;;;;4872799;29;20061;-60
2022/08/01 09:55:37;;;;;;;2.60;0.98;;;;;;;;;;4862798;29;20128;-59
2022/08/01 09:58:04;;;;;;;2.25;1.08;;;;;;;;;;4875959;29;20065;-61
2022/08/01 10:00:33;;;;;;;5.03;1.40;;;;;;;;;;4869360;29;20156;-59
2022/08/01 10:03:00;;;;;;;3.05;0.85;;;;;;;;;;4891797;29;20057;-62
2022/08/01 10:05:33;;;;;;;4.72;1.35;;;;;;;;;;4868555;29;20049;-59
2022/08/01 10:08:01;;;;;;;5.95;1.55;;;;;;;;;;4861052;29;20147;-59
2022/08/01 10:10:27;;;;;;;6.78;1.10;;;;;;;;;;4860149;29;20048;-61
2022/08/01 10:12:56;;;;;;;3.28;1.23;;;;;;;;;;4863167;29;20069;-62
2022/08/01 10:15:24;;;;;;;3.75;1.15;;;;;;;;;;4854694;29;20048;-61
2022/08/01 10:17:54;;;;;;;3.47;1.08;;;;;;;;;;4860153;29;20473;-61
2022/08/01 10:20:21;;;;;;;3.67;1.50;;;;;;;;;;4855868;29;20060;-61
2022/08/01 10:22:48;;;;;;;12.10;2.05;;;;;;;;;;4878540;29;20053;-62
2022/08/01 10:25:17;;;;;;;3.20;1.30;;;;;;;;;;4894268;29;20060;-61
2022/08/01 10:27:45;;;;;;;6.35;2.05;;;;;;;;;;4876298;29;20147;-59
2022/08/01 10:30:12;;;;;;;4.40;1.33;;;;;;;;;;4877951;29;20052;-61
2022/08/01 10:32:41;;;;;;;5.85;2.22;;;;;;;;;;4857098;29;20057;-61
2022/08/01 10:35:16;;;;;;;3.50;1.55;;;;;;;;;;4860053;29;20052;-61
2022/08/01 10:37:46;;;;;;;4.22;1.38;;;;;;;;;;4855364;29;20076;-62
2022/08/01 10:40:13;;;;;;;6.00;1.83;;;;;;;;;;4860052;29;20052;-62
2022/08/01 10:42:40;;;;;;;3.95;1.40;;;;;;;;;;4855440;29;20053;-62
2022/08/01 10:45:09;;;;;;;6.13;1.73;;;;;;;;;;4873655;29;20053;-60
2022/08/01 10:47:42;;;;;;;3.28;1.35;;;;;;;;;;4866853;29;20041;-61
2022/08/01 10:50:17;;;;;;;2.80;1.42;;;;;;;;;;4859923;29;20053;-61
2022/08/01 10:53:04;;;;;;;4.38;1.77;;;;;;;;;;4853785;29;20145;-61
2022/08/01 10:55:45;;;;;;;3.42;1.30;;;;;;;;;;4860242;29;20060;-60
2022/08/01 10:58:12;;;;;;;4.32;1.40;;;;;;;;;;4867861;29;20120;-61
2022/08/01 11:00:39;;;;;;;8.38;1.85;;;;;;;;;;4877736;29;20112;-61
2022/08/01 11:03:05;;;;;;;3.97;1.30;;;;;;;;;;4862474;29;20117;-61
2022/08/01 11:05:35;;;;;;;7.00;1.90;;;;;;;;;;4869179;29;20108;-60
2022/08/01 11:08:04;;;;;;;4.95;1.70;;;;;;;;;;4868990;29;20116;-61
2022/08/01 11:10:34;;;;;;;5.20;1.40;;;;;;;;;;4875916;29;20064;-60
2022/08/01 11:13:03;;;;;;;4.13;1.33;;;;;;;;;;4860316;29;20061;-61
2022/08/01 11:15:32;;;;;;;4.50;1.48;;;;;;;;;;4840567;29;20168;-61
2022/08/01 11:18:02;;;;;;;6.30;1.60;;;;;;;;;;4837864;29;20077;-60
2022/08/01 11:20:31;;;;;;;6.97;1.95;;;;;;;;;;4839775;29;20053;-59
2022/08/01 11:23:32;;;;;;;5.10;1.10;;;;;;;;;;4840451;29;20057;-61
2022/08/01 11:26:23;;;;;;;3.17;1.17;;;;;;;;;;4855129;29;20061;-60
2022/08/01 11:29:08;;;;;;;3.83;1.35;;;;;;;;;;4873281;29;20092;-61
2022/08/01 11:31:36;;;;;;;5.53;1.50;;;;;;;;;;4872203;29;20063;-60
2022/08/01 11:34:04;;;;;;;4.60;1.35;;;;;;;;;;4859577;29;20049;-60
2022/08/01 11:36:31;;;;;;;7.82;1.50;;;;;;;;;;4861522;29;20060;-61
2022/08/01 11:39:17;;;;;;;3.30;1.20;;;;;;;;;;4893609;29;20056;-61
2022/08/01 11:41:44;;;;;;;2.90;1.17;;;;;;;;;;4850533;29;20057;-61
2022/08/01 11:44:13;;;;;;;5.93;1.50;;;;;;;;;;4841653;29;20057;-60
2022/08/01 11:46:54;;;;;;;3.28;1.30;;;;;;;;;;4856239;29;20053;-61
2022/08/01 11:49:28;;;;;;;4.70;1.40;;;;;;;;;;4874962;29;20140;-60
2022/08/01 11:51:59;;;;;;;4.85;1.48;;;;;;;;;;4853268;29;20049;-59
2022/08/01 11:54:27;;;;;;;6.60;1.10;;;;;;;;;;4874967;29;20125;-60
2022/08/01 11:56:55;;;;;;;6.63;1.30;;;;;;;;;;4874154;29;20057;-60
2022/08/01 11:59:22;;;;;;;;;;;;;;;;;;4866264;29;20064;-59
2022/08/01 12:01:49;;;;;;;3.42;1.08;;;;;;;;;;4873776;29;19934;-60
2022/08/01 12:04:18;;;;;;;4.47;1.20;;;;;;;;;;4866022;29;20060;-59
2022/08/01 12:06:45;;;;;;;3.33;1.30;;;;;;;;;;4858197;29;20056;-61
2022/08/01 12:09:25;;;;;;;5.82;1.50;;;;;;;;;;4861564;29;20053;-61
2022/08/01 12:11:53;;;;;;;2.92;1.30;;;;;;;;;;4840756;29;20054;-61
2022/08/01 12:14:20;;;;;;;3.00;1.02;;;;;;;;;;4836290;29;20061;-60
2022/08/01 12:16:54;;;;;;;4.95;1.17;;;;;;;;;;4870633;29;20065;-60
2022/08/01 12:19:24;;;;;;;5.03;1.38;;;;;;;;;;4839743;29;20075;-60
2022/08/01 12:22:10;;;;;;;4.15;1.20;;;;;;;;;;4834253;29;20071;-61
2022/08/01 12:24:38;;;;;;;6.53;1.48;;;;;;;;;;4840270;29;20153;-61
2022/08/01 12:27:05;;;;;;;4.97;1.27;;;;;;;;;;4864432;29;20124;-59
2022/08/01 12:29:32;;;;;;;8.40;1.30;;;;;;;;;;4873545;29;20128;-59
2022/08/01 12:31:59;;;;;;;3.50;0.97;;;;;;;;;;4873651;29;20052;-60
2022/08/01 12:34:33;;;;;;;6.85;1.70;;;;;;;;;;4873235;29;20308;-61
2022/08/01 12:37:01;;;;;;;3.97;1.23;;;;;;;;;;4863179;29;20056;-61
2022/08/01 12:39:34;;;;;;;2.60;1.10;;;;;;;;;;4892690;29;20057;-60
2022/08/01 12:42:01;;;;;;;3.28;1.17;;;;;;;;;;4871484;29;20057;-60
2022/08/01 12:44:30;;;;;;;3.40;0.90;;;;;;;;;;4877678;29;20061;-59
2022/08/01 12:46:58;;;;;;;4.68;1.20;;;;;;;;;;4864585;29;20136;-61
2022/08/01 12:49:25;;;;;;;6.22;1.25;;;;;;;;;;4858778;29;20049;-60
2022/08/01 12:51:53;;;;;;;6.50;1.50;;;;;;;;;;4858223;29;20053;-59
2022/08/01 12:54:20;;;;;;;3.08;1.10;;;;;;;;;;4877568;29;20064;-59
2022/08/01 12:56:47;;;;;;;5.60;1.17;;;;;;;;;;4868649;29;20057;-60
2022/08/01 12:59:20;;;;;;;2.67;1.15;;;;;;;;;;4858475;29;20061;-60
2022/08/01 13:01:47;;;;;;;2.88;0.90;;;;;;;;;;4854453;29;20057;-60
2022/08/01 13:04:14;;;;;;;7.32;1.58;;;;;;;;;;4877579;29;20056;-59
2022/08/01 13:06:47;;;;;;;6.68;1.20;;;;;;;;;;4890953;29;20048;-61
2022/08/01 13:09:16;;;;;;;5.15;1.30;;;;;;;;;;4873915;29;20068;-60
2022/08/01 13:11:45;;;;;;;5.70;1.50;;;;;;;;;;4858432;29;20053;-61
2022/08/01 13:14:27;;;;;;;4.53;1.10;;;;;;;;;;4853111;29;20053;-60
2022/08/01 13:16:53;;;;;;;3.47;1.20;;;;;;;;;;4858125;29;20136;-60
2022/08/01 13:19:20;;;;;;;2.85;1.00;;;;;;;;;;4869111;29;20061;-60
2022/08/01 13:21:56;;;;;;;4.85;1.10;;;;;;;;;;4891355;29;20056;-59
2022/08/01 13:24:26;;;;;;;6.78;1.48;;;;;;;;;;4871033;29;20088;-60
2022/08/01 13:26:55;;;;;;;5.28;1.10;;;;;;;;;;4877092;29;20052;-60
2022/08/01 13:29:23;;;;;;;6.90;1.23;;;;;;;;;;4873933;29;20057;-59
2022/08/01 13:31:50;;;;;;;7.10;1.30;;;;;;;;;;4859093;29;20060;-60
2022/08/01 13:34:17;;;;;;;5.63;1.20;;;;;;;;;;4869271;29;20053;-60
2022/08/01 13:36:46;;;;;;;3.35;0.93;;;;;;;;;;4855430;29;20053;-60
2022/08/01 13:41:57;;;;;;;2.13;0.93;;;;;;;;;;4876920;29;20060;-61
2022/08/01 13:44:25;;;;;;;0.98;0.82;;;;;;;;;;4873114;29;20064;-59
2022/08/01 13:46:52;;;;;;;;;;;;;;;;;;4895745;29;20052;-59
2022/08/01 13:49:19;;;;;;;3.72;1.05;;;;;;;;;;4865408;29;19932;-61
2022/08/01 13:51:46;;;;;;;6.40;1.10;;;;;;;;;;4860214;29;20125;-60
2022/08/01 13:54:13;;;;;;;2.10;0.82;;;;;;;;;;4859258;29;20064;-61
2022/08/01 13:56:41;;;;;;;5.20;1.10;;;;;;;;;;4880148;29;20071;-59
2022/08/01 13:59:09;;;;;;;3.70;1.30;;;;;;;;;;4874772;29;20044;-59
2022/08/01 14:01:36;;;;;;;5.43;0.90;;;;;;;;;;4880219;29;20049;-58
2022/08/01 14:04:03;;;;;;;3.47;0.80;;;;;;;;;;4886181;29;20076;-61
2022/08/01 14:06:35;;;;;;;4.80;1.02;;;;;;;;;;4877334;29;20056;-58
2022/08/01 14:09:02;;;;;;;1.35;0.70;;;;;;;;;;4876975;29;20056;-59
2022/08/01 14:11:29;;;;;;;1.40;0.73;;;;;;;;;;4870979;29;20087;-60
2022/08/01 14:13:55;;;;;;;2.60;1.00;;;;;;;;;;4878505;29;20053;-60
2022/08/01 14:16:24;;;;;;;4.20;1.00;;;;;;;;;;4870557;29;20092;-60
2022/08/01 14:18:51;;;;;;;4.55;1.17;;;;;;;;;;4876460;29;20116;-60
2022/08/01 14:21:17;;;;;;;2.80;0.85;;;;;;;;;;4858349;29;20073;-61
2022/08/01 14:23:44;;;;;;;2.47;0.88;;;;;;;;;;4858398;29;20053;-62
2022/08/01 14:26:15;;;;;;;2.20;0.95;;;;;;;;;;4852879;29;20062;-60
2022/08/01 14:28:42;;;;;;;2.58;0.73;;;;;;;;;;4857754;29;20061;-61
2022/08/01 14:31:08;;;;;;;3.92;0.90;;;;;;;;;;4860542;29;20045;-58
2022/08/01 14:33:37;;;;;;;1.70;0.93;;;;;;;;;;4869493;29;20061;-60
2022/08/01 14:36:11;;;;;;;2.67;1.00;;;;;;;;;;4859282;29;20057;-59
2022/08/01 14:38:40;;;;;;;1.48;0.90;;;;;;;;;;4867753;29;20061;-59
2022/08/01 14:41:07;;;;;;;3.15;0.98;;;;;;;;;;4869658;29;20101;-60
2022/08/01 14:43:33;;;;;;;2.22;0.80;;;;;;;;;;4876071;29;20080;-59
2022/08/01 14:46:09;;;;;;;1.58;0.80;;;;;;;;;;4867789;29;20049;-59
2022/08/01 14:48:37;;;;;;;1.60;0.70;;;;;;;;;;4856709;29;20061;-60
2022/08/01 14:51:04;;;;;;;;;;;;;;;;;;4851175;29;20053;-60
2022/08/01 14:53:31;;;;;;;3.95;0.90;;;;;;;;;;4856178;29;19980;-61
2022/08/01 14:55:59;;;;;;;4.32;1.30;;;;;;;;;;4853193;29;20050;-60
2022/08/01 14:58:27;;;;;;;2.65;0.80;;;;;;;;;;4870172;29;20053;-59